Time;durP1;ratioP1;P1;durP2;ratioP2;P2;SDS_P1;SDS_P2;PMS_P1;PMS_P2;Temp;Humidity;BMP_temperature;BMP_pressure;BME280_temperature;BME280_humidity;BME280_pressure;Samples;Min_cycle;Max_cycle;Signal;HPM_P1;HPM_P2
2024/02/29 00:02:05;;;;;;;;;80.00;60.00;;;;;7.04;100.00;99913.44;6313144;20;3630465;-41
2024/02/29 00:04:35;;;;;;;;;81.67;61.00;;;;;7.09;100.00;99915.91;6315455;20;3651411;-41
2024/02/29 00:07:05;;;;;;;;;82.33;62.00;;;;;7.00;100.00;99910.97;6282014;20;3655506;-42
2024/02/29 00:09:38;;;;;;;;;83.00;63.00;;;;;6.68;100.00;99907.88;6281314;20;3655455;-43
2024/02/29 00:12:08;;;;;;;;;80.00;63.00;;;;;6.51;100.00;99902.38;6316328;20;3645207;-40
2024/02/29 00:14:38;;;;;;;;;81.00;59.67;;;;;6.51;100.00;99910.38;6314174;20;3639837;-41
2024/02/29 00:17:08;;;;;;;;;76.33;60.33;;;;;6.49;100.00;99906.91;6314729;20;3624220;-41
2024/02/29 00:19:37;;;;;;;;;77.33;58.67;;;;;6.66;100.00;99909.75;6315945;20;3624224;-41
2024/02/29 00:22:07;;;;;;;;;81.33;62.00;;;;;6.68;100.00;99913.19;6315805;20;3642973;-41
2024/02/29 00:24:36;;;;;;;;;81.67;59.67;;;;;6.23;100.00;99907.97;6280225;20;3649319;-41
2024/02/29 00:27:07;;;;;;;;;82.67;63.00;;;;;6.33;100.00;99898.66;6313817;20;3645033;-41
2024/02/29 00:29:38;;;;;;;;;78.67;62.33;;;;;6.50;100.00;99903.28;6314973;20;3623171;-40
2024/02/29 00:32:07;;;;;;;;;76.67;59.33;;;;;6.51;100.00;99907.72;6314331;20;3627360;-42
2024/02/29 00:34:37;;;;;;;;;75.67;61.00;;;;;6.53;100.00;99905.84;6313723;20;2855531;-41
2024/02/29 00:37:07;;;;;;;;;80.00;59.67;;;;;6.74;100.00;99909.41;6313322;20;3641937;-41
2024/02/29 00:39:37;;;;;;;;;86.00;68.00;;;;;6.48;100.00;99908.72;6314448;20;3662752;-40
2024/02/29 00:42:07;;;;;;;;;78.33;60.00;;;;;6.83;100.00;99914.38;6283405;20;3613798;-40
2024/02/29 00:44:37;;;;;;;;;77.67;60.00;;;;;6.85;100.00;99906.31;6312603;20;3613817;-40
2024/02/29 00:47:06;;;;;;;;;67.67;47.67;;;;;6.98;100.00;99912.84;6313462;20;2863849;-40
2024/02/29 00:49:36;;;;;;;;;80.67;60.67;;;;;6.55;100.00;99914.66;6314547;20;3650299;-41
2024/02/29 00:52:06;;;;;;;;;75.33;56.33;;;;;6.51;100.00;99913.06;6281746;20;3642959;-40
2024/02/29 00:54:36;;;;;;;;;87.67;62.00;;;;;6.60;100.00;99912.66;6312337;20;3650254;-40
2024/02/29 00:57:06;;;;;;;;;80.67;60.00;;;;;6.78;100.00;99903.88;6312641;20;3656511;-39
2024/02/29 00:59:35;;;;;;;;;75.00;59.33;;;;;6.45;100.00;99903.50;6282431;20;2874405;-40
2024/02/29 01:02:05;;;;;;;;;77.00;59.33;;;;;6.29;100.00;99908.59;6313387;20;3605464;-41
2024/02/29 01:04:34;;;;;;;;;82.67;59.00;;;;;6.36;100.00;99907.41;6311199;20;3639827;-41
2024/02/29 01:07:04;;;;;;;;;76.00;58.33;;;;;6.43;100.00;99915.19;6313535;20;3629465;-40
2024/02/29 01:09:34;;;;;;;;;67.67;56.33;;;;;6.33;100.00;99904.88;6313162;20;3627704;-39
2024/02/29 01:12:03;;;;;;;;;71.33;54.33;;;;;6.55;100.00;99898.63;6314392;20;3631526;-40
2024/02/29 01:14:33;;;;;;;;;73.67;54.67;;;;;6.28;100.00;99904.19;6311760;20;3628663;-39
2024/02/29 01:17:03;;;;;;;;;69.33;54.33;;;;;6.21;100.00;99894.69;6313866;20;3630482;-39
2024/02/29 01:19:32;;;;;;;;;73.67;57.00;;;;;5.92;100.00;99893.16;6312547;20;3631540;-41
2024/02/29 01:22:02;;;;;;;;;76.67;59.67;;;;;6.06;100.00;99901.53;6313701;20;3624229;-39
2024/02/29 01:24:31;;;;;;;;;74.00;59.00;;;;;6.35;100.00;99902.16;6312926;20;3627369;-39
2024/02/29 01:27:01;;;;;;;;;75.33;57.00;;;;;6.23;100.00;99897.31;6284074;20;3647187;-42
2024/02/29 01:29:31;;;;;;;;;79.33;62.33;;;;;5.98;100.00;99897.41;6313228;20;3610719;-39
2024/02/29 01:32:01;;;;;;;;;84.67;63.33;;;;;5.83;100.00;99891.72;6312290;20;3653409;-40
2024/02/29 01:34:43;;;;;;;;;78.67;57.67;;;;;5.91;100.00;99891.44;6279408;20;3659681;-40
2024/02/29 01:37:14;;;;;;;;;75.33;57.00;;;;;5.98;100.00;99886.75;6310418;20;3640932;-41
2024/02/29 01:39:43;;;;;;;;;77.00;59.00;;;;;5.69;100.00;99886.06;6311936;20;3652378;-39
2024/02/29 01:42:13;;;;;;;;;72.00;56.00;;;;;5.93;100.00;99890.47;6312177;20;3636721;-40
2024/02/29 01:45:04;;;;;;;;;78.33;60.33;;;;;6.36;100.00;99888.75;6312092;20;3618026;-39
2024/02/29 01:47:34;;;;;;;;;79.67;61.00;;;;;6.20;100.00;99886.78;6313414;20;3632537;-40
2024/02/29 01:50:08;;;;;;;;;77.00;59.00;;;;;5.66;100.00;99876.41;6312697;20;3630535;-41
2024/02/29 01:52:40;;;;;;;;;80.75;58.50;;;;;5.68;100.00;99884.31;6311705;20;3660772;-40
2024/02/29 01:55:10;;;;;;;;;75.50;58.50;;;;;5.94;100.00;99886.00;6310342;20;2589939;-40
2024/02/29 01:57:40;;;;;;;;;72.67;58.00;;;;;5.93;100.00;99877.16;6309337;20;3626319;-40
2024/02/29 02:00:11;;;;;;;;;74.67;57.67;;;;;5.92;100.00;99867.41;6309358;20;3629520;-41
2024/02/29 02:02:41;;;;;;;;;74.00;58.00;;;;;6.21;100.00;99867.16;6310657;20;3609671;-40
2024/02/29 02:05:10;;;;;;;;;79.33;58.00;;;;;6.01;100.00;99867.97;6306416;20;3642007;-40
2024/02/29 02:07:41;;;;;;;;;68.00;55.00;;;;;5.89;100.00;99872.81;6312864;20;2856561;-40
2024/02/29 02:10:11;;;;;;;;;76.67;59.33;;;;;5.75;100.00;99872.50;6281572;20;3645113;-40
2024/02/29 02:12:41;;;;;;;;;73.00;57.33;;;;;5.71;100.00;99873.53;6311866;20;3628459;-40
2024/02/29 02:15:11;;;;;;;;;73.00;57.00;;;;;5.63;100.00;99867.63;6310271;20;3623198;-41
2024/02/29 02:17:42;;;;;;;;;76.33;59.00;;;;;5.68;100.00;99871.00;6311857;20;2869124;-40
2024/02/29 02:20:17;;;;;;;;;75.67;58.00;;;;;5.58;100.00;99861.63;6317945;20;3624260;-41
2024/02/29 02:22:47;;;;;;;;;20.60;13.60;;;;;5.66;100.00;99864.84;6344320;20;2810677;-40
2024/02/29 02:25:17;;;;;;;;;75.33;57.00;;;;;5.99;100.00;99862.69;6285550;20;3637728;-40
2024/02/29 02:27:47;;;;;;;;;75.00;58.67;;;;;5.79;100.00;99866.13;6317184;20;2868129;-40
2024/02/29 02:30:16;;;;;;;;;75.67;57.33;;;;;5.66;100.00;99862.19;6317772;20;3638788;-41
2024/02/29 02:32:46;;;;;;;;;69.33;55.00;;;;;6.10;100.00;99868.47;6317483;20;2870257;-40
2024/02/29 02:35:15;;;;;;;;;80.33;60.00;;;;;6.25;100.00;99864.31;6314833;20;3642956;-40
2024/02/29 02:37:45;;;;;;;;;82.33;63.33;;;;;5.80;100.00;99861.69;6316920;20;3640943;-42
2024/02/29 02:40:15;;;;;;;;;75.00;61.00;;;;;5.01;100.00;99856.63;6312773;20;3613787;-41
2024/02/29 02:42:44;;;;;;;;;80.67;60.67;;;;;5.45;100.00;99867.44;6316381;20;3659625;-42
2024/02/29 02:45:14;;;;;;;;;75.67;58.00;;;;;5.81;100.00;99858.94;6281642;20;3638998;-41
2024/02/29 02:47:44;;;;;;;;;76.33;58.00;;;;;5.52;100.00;99862.72;6315989;20;3619097;-40
2024/02/29 02:50:14;;;;;;;;;71.00;57.67;;;;;5.89;100.00;99862.16;6314735;20;3623218;-40
2024/02/29 02:52:44;;;;;;;;;79.67;56.33;;;;;5.58;100.00;99872.28;6317721;20;3669026;-40
2024/02/29 02:55:13;;;;;;;;;69.33;55.33;;;;;5.54;100.00;99865.34;6283023;20;2885928;-40
2024/02/29 02:57:43;;;;;;;;;74.67;58.00;;;;;5.48;100.00;99872.63;6316509;20;3629473;-40
2024/02/29 03:00:13;;;;;;;;;60.67;44.67;;;;;5.62;100.00;99866.78;6314752;20;3636796;-41
2024/02/29 03:02:43;;;;;;;;;77.33;58.00;;;;;5.50;100.00;99868.13;6305116;20;3647315;-40
2024/02/29 03:05:13;;;;;;;;;73.00;57.00;;;;;5.59;100.00;99869.56;6310410;20;3618106;-40
2024/02/29 03:07:42;;;;;;;;;73.33;55.00;;;;;5.48;100.00;99871.78;6307706;20;2888975;-40
2024/02/29 03:10:12;;;;;;;;;81.67;64.00;;;;;5.68;100.00;99873.66;6306234;20;3620076;-40
2024/02/29 03:12:43;;;;;;;;;81.00;58.00;;;;;5.62;100.00;99879.22;6312741;20;3642040;-41
2024/02/29 03:15:12;;;;;;;;;78.33;62.00;;;;;6.01;100.00;99878.66;6310674;20;2854492;-41
2024/02/29 03:17:42;;;;;;;;;73.67;58.00;;;;;5.87;100.00;99877.38;6314430;20;3624340;-41
2024/02/29 03:20:13;;;;;;;;;75.00;60.00;;;;;5.77;100.00;99881.31;6314744;20;3618013;-41
2024/02/29 03:22:45;;;;;;;;;74.33;56.67;;;;;6.17;100.00;99887.75;6312311;20;3635746;-41
2024/02/29 03:25:15;;;;;;;;;78.00;61.00;;;;;5.42;100.00;99878.16;6314382;20;3618539;-39
2024/02/29 03:27:46;;;;;;;;;75.33;58.33;;;;;4.90;100.00;99873.88;6311616;20;3623180;-40
2024/02/29 03:30:17;;;;;;;;;75.00;58.00;;;;;5.57;100.00;99871.41;6314339;20;3616916;-40
2024/02/29 03:32:46;;;;;;;;;74.33;56.33;;;;;5.51;100.00;99871.66;6312380;20;3612848;-40
2024/02/29 03:35:16;;;;;;;;;71.33;54.67;;;;;5.45;100.00;99875.41;6312987;20;3636728;-39
2024/02/29 03:37:46;;;;;;;;;74.33;56.33;;;;;5.68;100.00;99884.31;6313685;20;3650353;-40
2024/02/29 03:40:15;;;;;;;;;70.50;55.50;;;;;5.21;100.00;99884.28;6316231;20;2870062;-42
2024/02/29 03:42:44;;;;;;;;;72.33;53.67;;;;;5.36;100.00;99886.41;6283673;20;3630461;-42
2024/02/29 03:45:14;;;;;;;;;72.67;53.33;;;;;5.47;100.00;99884.19;6314346;20;3631585;-42
2024/02/29 03:47:44;;;;;;;;;74.00;58.00;;;;;5.78;100.00;99880.38;6315000;20;3628483;-44
2024/02/29 03:50:13;;;;;;;;;72.00;56.00;;;;;5.35;100.00;99879.34;6316227;20;3630488;-44
2024/02/29 03:52:43;;;;;;;;;70.33;56.00;;;;;5.33;100.00;99883.84;6316322;20;3619057;-44
2024/02/29 03:55:12;;;;;;;;;71.67;58.33;;;;;5.26;100.00;99885.00;6314034;20;3643022;-43
2024/02/29 03:57:42;;;;;;;;;67.00;52.67;;;;;4.72;100.00;99884.25;6313468;20;2872331;-44
2024/02/29 04:00:13;;;;;;;;;67.33;53.67;;;;;5.17;100.00;99883.53;6315668;20;2871363;-44
2024/02/29 04:02:43;;;;;;;;;72.67;57.67;;;;;5.14;100.00;99882.81;6309055;20;2875406;-46
2024/02/29 04:05:12;;;;;;;;;68.00;56.33;;;;;5.04;100.00;99880.47;6310655;20;3613851;-40
2024/02/29 04:07:42;;;;;;;;;78.00;58.00;;;;;4.93;100.00;99877.31;6314684;20;3633701;-40
2024/02/29 04:10:11;;;;;;;;;78.50;57.00;;;;;5.14;100.00;99883.66;6310320;20;2550455;-40
2024/02/29 04:12:41;;;;;;;;;75.00;56.33;;;;;5.26;100.00;99880.53;6282689;20;3647165;-40
2024/02/29 04:15:11;;;;;;;;;71.00;53.67;;;;;5.32;100.00;99882.13;6279991;20;3641920;-39
2024/02/29 04:17:40;;;;;;;;;70.67;56.67;;;;;5.12;100.00;99890.81;6315934;20;2876407;-39
2024/02/29 04:20:10;;;;;;;;;69.00;56.67;;;;;5.16;100.00;99881.81;6316544;20;2875340;-39
2024/02/29 04:22:40;;;;;;;;;73.00;55.00;;;;;5.31;100.00;99875.06;6314171;20;3641945;-40
2024/02/29 04:25:10;;;;;;;;;74.67;56.00;;;;;4.83;100.00;99881.22;6311830;20;3646261;-42
2024/02/29 04:27:40;;;;;;;;;73.67;56.00;;;;;5.07;100.00;99877.69;6314731;20;3630464;-40
2024/02/29 04:30:11;;;;;;;;;69.67;55.33;;;;;5.28;100.00;99880.50;6316226;20;3636073;-40
2024/02/29 04:32:41;;;;;;;;;74.67;57.33;;;;;5.26;100.00;99877.00;6316316;20;3637765;-40
2024/02/29 04:35:10;;;;;;;;;69.33;54.33;;;;;5.23;100.00;99878.00;6313701;20;2874323;-42
2024/02/29 04:37:40;;;;;;;;;68.33;54.33;;;;;5.27;100.00;99879.63;6313513;20;2879260;-40
2024/02/29 04:40:11;;;;;;;;;66.67;52.67;;;;;5.17;100.00;99877.38;6314216;20;2869089;-42
2024/02/29 04:42:41;;;;;;;;;70.67;57.33;;;;;5.38;100.00;99886.34;6313457;20;2876406;-41
2024/02/29 04:45:11;;;;;;;;;66.00;52.33;;;;;5.43;100.00;99889.72;6310778;20;3639836;-41
2024/02/29 04:47:40;;;;;;;;;69.00;56.00;;;;;5.39;100.00;99880.09;6313360;20;2881621;-41
2024/02/29 04:50:10;;;;;;;;;70.00;53.33;;;;;5.35;100.00;99884.66;6314151;20;3629421;-40
2024/02/29 04:52:39;;;;;;;;;70.33;56.33;;;;;5.22;100.00;99891.38;6315352;20;2868994;-40
2024/02/29 04:55:09;;;;;;;;;64.67;53.00;;;;;5.82;100.00;99892.66;6311819;20;2862772;-40
2024/02/29 04:57:39;;;;;;;;;69.00;55.67;;;;;5.17;100.00;99888.00;6311637;20;2877422;-41
2024/02/29 05:00:10;;;;;;;;;73.67;55.33;;;;;5.25;100.00;99885.94;6311800;20;3633592;-41
2024/02/29 05:02:39;;;;;;;;;71.67;53.67;;;;;5.67;100.00;99887.91;6313281;20;3629418;-41
2024/02/29 05:05:12;;;;;;;;;73.00;57.67;;;;;5.62;100.00;99879.22;6312246;20;2873179;-41
2024/02/29 05:07:43;;;;;;;;;76.00;58.00;;;;;5.04;100.00;99883.13;6312430;20;3640873;-41
2024/02/29 05:10:13;;;;;;;;;90.00;69.33;;;;;5.14;100.00;99878.34;6313642;20;3659773;-41
2024/02/29 05:12:43;;;;;;;;;95.00;79.33;;;;;5.11;100.00;99869.56;6278450;20;3681547;-40
2024/02/29 05:15:15;;;;;;;;;96.75;80.75;;;;;5.36;100.00;99882.88;6281274;20;3686831;-40
2024/02/29 05:17:46;;;;;;;;;94.00;72.33;;;;;5.10;100.00;99883.81;6313394;20;3678910;-42
2024/02/29 05:20:16;;;;;;;;;91.33;69.00;;;;;5.49;100.00;99881.50;6280593;20;3670033;-42
2024/02/29 05:22:46;;;;;;;;;100.67;87.00;;;;;5.41;100.00;99880.91;6279445;20;3671078;-41
2024/02/29 05:25:15;;;;;;;;;118.33;96.00;;;;;4.97;100.00;99886.03;6279003;20;3697151;-40
2024/02/29 05:27:45;;;;;;;;;96.00;79.00;;;;;5.36;100.00;99881.06;6281776;20;3687804;-41
2024/02/29 05:30:15;;;;;;;;;106.67;88.33;;;;;5.38;100.00;99886.34;6282502;20;3694080;-40
2024/02/29 05:32:48;;;;;;;;;94.67;78.67;;;;;4.94;100.00;99888.81;6281283;20;3678510;-40
2024/02/29 05:35:18;;;;;;;;;78.67;57.67;;;;;5.43;100.00;99889.72;6277010;20;3647137;-43
2024/02/29 05:37:47;;;;;;;;;83.33;62.67;;;;;5.28;100.00;99892.00;6311205;20;3663830;-42
2024/02/29 05:40:17;;;;;;;;;75.67;58.67;;;;;5.43;100.00;99890.56;6276963;20;3620131;-42
2024/02/29 05:42:47;;;;;;;;;100.00;83.33;;;;;4.98;100.00;99895.78;6314142;20;3681515;-41
2024/02/29 05:45:17;;;;;;;;;77.00;60.67;;;;;5.31;100.00;99896.34;6277888;20;3602339;-41
2024/02/29 05:47:47;;;;;;;;;86.33;65.67;;;;;5.61;100.00;99899.69;6313180;20;3655465;-41
2024/02/29 05:50:17;;;;;;;;;85.00;62.33;;;;;5.73;100.00;99908.97;6312322;20;3658662;-41
2024/02/29 05:52:47;;;;;;;;;86.00;65.00;;;;;5.58;100.00;99905.13;6282482;20;3649227;-42
2024/02/29 05:55:17;;;;;;;;;86.67;67.00;;;;;5.41;100.00;99911.06;6315971;20;3654407;-42
2024/02/29 05:57:46;;;;;;;;;82.00;64.00;;;;;5.30;100.00;99915.06;6285925;20;3641908;-42
2024/02/29 06:00:22;;;;;;;;;87.00;65.00;;;;;5.59;100.00;99921.97;6283312;20;3650407;-41
2024/02/29 06:02:51;;;;;;;;;72.33;57.33;;;;;5.79;100.00;99923.88;6315169;20;3622180;-42
2024/02/29 06:05:22;;;;;;;;;74.00;55.33;;;;;5.65;100.00;99919.94;6317061;20;3633594;-41
2024/02/29 06:07:52;;;;;;;;;79.33;57.33;;;;;6.44;100.00;99928.44;6313942;20;3650686;-42
2024/02/29 06:10:22;;;;;;;;;80.33;61.00;;;;;6.23;100.00;99932.81;6318765;20;3632575;-44
2024/02/29 06:12:52;;;;;;;;;73.00;59.00;;;;;6.81;100.00;99943.78;6317141;20;3625264;-43
2024/02/29 06:15:21;;;;;;;;;83.67;64.67;;;;;6.37;100.00;99932.25;6317004;20;3638823;-42
2024/02/29 06:17:51;;;;;;;;;79.00;61.00;;;;;7.59;100.00;99936.84;6316472;20;3628382;-42
2024/02/29 06:20:21;;;;;;;;;77.33;58.33;;;;;8.92;100.00;99942.09;6317387;20;2861844;-44
2024/02/29 06:22:51;;;;;;;;;78.33;59.00;;;;;9.26;100.00;99941.22;6319343;20;3626385;-43
2024/02/29 06:25:20;;;;;;;;;77.00;55.33;;;;;10.85;94.28;99945.00;6317207;20;3649225;-43
2024/02/29 06:27:50;;;;;;;;;69.00;51.67;;;;;11.39;87.54;99947.16;6317433;20;3645038;-42
2024/02/29 06:30:20;;;;;;;;;61.50;48.00;;;;;11.52;84.73;99937.41;6315922;20;3507543;-42
2024/02/29 06:32:49;;;;;;;;;62.33;48.00;;;;;11.73;82.83;99928.97;6316397;20;3620061;-41
2024/02/29 06:35:18;;;;;;;;;60.00;48.50;;;;;11.74;79.91;99931.56;6317726;20;3498157;-44
2024/02/29 06:37:48;;;;;;;;;57.00;46.33;;;;;12.12;81.79;99941.75;6315984;20;2867996;-42
2024/02/29 06:40:17;;;;;;;;;66.67;53.67;;;;;12.18;80.27;99940.50;6315193;20;3626287;-42
2024/02/29 06:42:48;;;;;;;;;65.67;52.00;;;;;12.89;76.19;99942.97;6317936;20;3627352;-42
2024/02/29 06:45:17;;;;;;;;;58.33;48.00;;;;;12.64;74.93;99932.13;6317897;20;3613798;-42
2024/02/29 06:47:46;;;;;;;;;57.00;45.33;;;;;12.91;73.69;99932.97;6287718;20;2875371;-42
2024/02/29 06:50:15;;;;;;;;;57.00;43.67;;;;;12.16;76.61;99927.13;6318380;20;3614942;-42
2024/02/29 06:52:44;;;;;;;;;60.33;49.00;;;;;10.65;84.61;99932.72;6289205;20;3601325;-42
2024/02/29 06:55:14;;;;;;;;;62.50;48.00;;;;;10.36;92.00;99928.19;6283843;20;3525263;-40
2024/02/29 06:57:44;;;;;;;;;60.67;47.33;;;;;11.92;82.60;99929.56;6317032;20;3612784;-41
2024/02/29 07:00:14;;;;;;;;;61.67;48.00;;;;;10.16;93.10;99924.75;6316104;20;3628439;-42
2024/02/29 07:02:44;;;;;;;;;60.33;46.67;;;;;10.23;95.15;99927.97;6316206;20;3629475;-42
2024/02/29 07:05:13;;;;;;;;;57.00;47.00;;;;;9.48;100.00;99921.34;6314823;20;2860806;-42
2024/02/29 07:07:44;;;;;;;;;65.33;49.00;;;;;9.05;100.00;99920.94;6315343;20;3650374;-43
2024/02/29 07:10:14;;;;;;;;;62.67;49.00;;;;;8.72;100.00;99913.69;6316900;20;3630627;-42
2024/02/29 07:12:43;;;;;;;;;62.33;50.00;;;;;8.63;100.00;99924.81;6318879;20;3629438;-41
2024/02/29 07:15:12;;;;;;;;;70.00;53.67;;;;;8.31;100.00;99921.88;6283978;20;3637747;-41
2024/02/29 07:17:41;;;;;;;;;68.00;53.67;;;;;8.40;100.00;99921.50;6296548;20;3621080;-42
2024/02/29 07:20:15;;;;;;;;;68.67;53.67;;;;;8.33;100.00;99917.34;6284636;20;3635671;-41
2024/02/29 07:22:46;;;;;;;;;71.00;57.00;;;;;8.59;100.00;99921.44;6316103;20;3626317;-42
2024/02/29 07:25:15;;;;;;;;;75.33;64.00;;;;;8.46;100.00;99923.84;6315808;20;3648242;-42
2024/02/29 07:27:45;;;;;;;;;74.00;61.67;;;;;8.44;100.00;99925.72;6283676;20;3614860;-42
2024/02/29 07:30:15;;;;;;;;;68.67;53.00;;;;;8.66;100.00;99919.31;6315234;20;3611877;-42
2024/02/29 07:32:44;;;;;;;;;69.33;54.67;;;;;8.83;100.00;99919.34;6316068;20;3625357;-41
2024/02/29 07:35:17;;;;;;;;;66.00;53.33;;;;;8.77;100.00;99911.63;6313289;20;3623199;-42
2024/02/29 07:37:47;;;;;;;;;67.33;52.00;;;;;9.08;100.00;99916.25;6316839;20;3617982;-42
2024/02/29 07:40:20;;;;;;;;;71.00;56.00;;;;;9.25;100.00;99920.75;6314850;20;3623261;-42
2024/02/29 07:42:49;;;;;;;;;58.33;48.00;;;;;9.33;100.00;99906.97;6317529;20;3621058;-42
2024/02/29 07:45:19;;;;;;;;;63.33;50.67;;;;;9.36;100.00;99913.00;6282253;20;3620096;-44
2024/02/29 07:47:50;;;;;;;;;58.00;47.33;;;;;9.53;100.00;99912.13;6317057;20;2874447;-42
2024/02/29 07:50:20;;;;;;;;;57.67;46.33;;;;;9.63;100.00;99917.84;6315053;20;2860745;-43
2024/02/29 07:52:50;;;;;;;;;52.67;45.00;;;;;9.59;100.00;99917.16;6315746;20;3624247;-42
2024/02/29 07:55:20;;;;;;;;;463.50;390.25;;;;;8.56;100.00;99914.44;6221021;20;6745979;-43
2024/02/29 07:57:50;;;;;;;;;80.25;73.00;;;;;9.52;100.00;99909.53;6280468;20;4393962;-43
2024/02/29 08:00:20;;;;;;;;;102.75;87.25;;;;;9.25;100.00;99907.38;6316252;20;4451387;-45
2024/02/29 08:02:51;;;;;;;;;79.50;70.00;;;;;9.54;100.00;99907.63;6313222;20;4420029;-44
2024/02/29 08:05:21;;;;;;;;;69.00;54.33;;;;;9.49;100.00;99915.06;6311664;20;3619019;-42
2024/02/29 08:07:51;;;;;;;;;59.33;46.33;;;;;10.07;100.00;99911.88;6313024;20;3626328;-42
2024/02/29 08:10:20;;;;;;;;;60.00;45.67;;;;;10.01;100.00;99913.06;6313678;20;3628373;-43
2024/02/29 08:12:50;;;;;;;;;55.33;45.00;;;;;9.58;100.00;99914.53;6313580;20;3608750;-43
2024/02/29 08:15:19;;;;;;;;;49.33;41.33;;;;;9.45;100.00;99920.59;6308555;20;2852367;-43
2024/02/29 08:17:49;;;;;;;;;53.67;43.33;;;;;10.11;100.00;99918.81;6312913;20;2857136;-41
2024/02/29 08:20:20;;;;;;;;;52.67;44.00;;;;;9.91;100.00;99909.16;6315026;20;2858606;-41
2024/02/29 08:22:53;;;;;;;;;51.00;42.50;;;;;10.53;100.00;99920.91;6311046;20;2858730;-41
2024/02/29 08:25:26;;;;;;;;;54.33;44.00;;;;;10.49;100.00;99919.31;6281286;20;2864983;-41
2024/02/29 08:27:56;;;;;;;;;57.00;45.00;;;;;10.54;100.00;99919.94;6312791;20;3611782;-42
2024/02/29 08:30:25;;;;;;;;;50.33;43.00;;;;;10.21;100.00;99908.41;6314610;20;2855540;-42
2024/02/29 08:32:55;;;;;;;;;57.33;44.00;;;;;10.50;100.00;99921.03;6314134;20;3629538;-42
2024/02/29 08:35:25;;;;;;;;;51.00;40.67;;;;;10.38;100.00;99915.53;6309939;20;2854449;-42
2024/02/29 08:37:54;;;;;;;;;53.67;42.33;;;;;10.77;100.00;99912.38;6313945;20;2863814;-42
2024/02/29 08:40:25;;;;;;;;;51.00;43.00;;;;;10.65;100.00;99908.56;6312847;20;2852456;-42
2024/02/29 08:42:54;;;;;;;;;50.50;40.50;;;;;10.90;100.00;99913.38;6281683;20;2851360;-44
2024/02/29 08:45:23;;;;;;;;;48.00;40.50;;;;;10.58;100.00;99907.19;6278641;20;2838970;-42
2024/02/29 08:47:52;;;;;;;;;51.00;43.00;;;;;10.44;100.00;99910.66;6283154;20;2869085;-43
2024/02/29 08:50:22;;;;;;;;;42.00;36.33;;;;;10.73;100.00;99900.91;6311519;20;2862922;-42
2024/02/29 08:52:51;;;;;;;;;51.33;41.33;;;;;10.55;100.00;99902.84;6312421;20;3600285;-44
2024/02/29 08:55:20;;;;;;;;;38.50;35.50;;;;;10.61;100.00;99907.03;6310401;20;2848201;-43
2024/02/29 08:57:49;;;;;;;;;50.50;39.50;;;;;11.02;97.65;99913.59;6282440;20;2856587;-42
2024/02/29 09:00:18;;;;;;;;;48.00;39.50;;;;;11.34;93.99;99901.75;6281830;20;2848170;-43
2024/02/29 09:02:48;;;;;;;;;52.00;43.00;;;;;11.06;95.38;99897.19;6279301;20;3614887;-44
2024/02/29 09:05:17;;;;;;;;;50.00;40.33;;;;;10.71;96.83;99894.78;6314749;20;3605504;-42
2024/02/29 09:07:46;;;;;;;;;50.33;43.00;;;;;11.49;92.92;99886.50;6281451;20;2867096;-42
2024/02/29 09:10:16;;;;;;;;;52.33;41.33;;;;;11.20;94.51;99889.16;6314809;20;3617959;-43
2024/02/29 09:12:46;;;;;;;;;45.33;38.33;;;;;10.97;94.92;99881.63;6282664;20;2851351;-42
2024/02/29 09:15:15;;;;;;;;;53.00;44.33;;;;;11.12;94.68;99886.06;6312656;20;3598219;-42
2024/02/29 09:17:45;;;;;;;;;46.00;38.33;;;;;11.15;93.65;99885.88;6280715;20;2879562;-43
2024/02/29 09:20:13;;;;;;;;;51.00;42.67;;;;;11.54;93.64;99881.69;6314243;20;3610763;-41
2024/02/29 09:22:42;;;;;;;;;53.00;42.50;;;;;11.77;92.83;99874.00;6278579;20;2855618;-42
2024/02/29 09:25:12;;;;;;;;;58.67;45.67;;;;;11.89;92.19;99877.78;6280228;20;3632551;-44
2024/02/29 09:27:41;;;;;;;;;51.33;41.00;;;;;11.67;92.78;99875.56;6311299;20;3591956;-44
2024/02/29 09:30:13;;;;;;;;;50.50;42.00;;;;;11.33;93.66;99873.16;6313442;20;2849250;-45
2024/02/29 09:32:51;;;;;;;;;47.33;40.00;;;;;11.60;92.62;99875.94;6281125;20;2872459;-49
2024/02/29 09:35:21;;;;;;;;;50.67;40.00;;;;;11.87;92.43;99872.47;6313087;20;3587751;-48
2024/02/29 09:37:50;;;;;;;;;47.00;40.00;;;;;12.19;90.43;99877.59;6281993;20;2845503;-45
2024/02/29 09:40:20;;;;;;;;;48.00;39.67;;;;;12.52;88.82;99883.47;6279600;20;2846111;-46
2024/02/29 09:42:49;;;;;;;;;47.00;38.67;;;;;12.37;88.65;99881.78;6313220;20;3597152;-44
2024/02/29 09:45:18;;;;;;;;;48.50;38.50;;;;;12.79;86.01;99881.72;6275421;20;2846196;-45
2024/02/29 09:47:51;;;;;;;;;48.67;40.00;;;;;12.57;84.14;99874.22;6279013;20;3599235;-45
2024/02/29 09:50:20;;;;;;;;;50.00;40.00;;;;;12.34;86.89;99881.13;6314608;20;3612757;-44
2024/02/29 09:52:54;;;;;;;;;46.00;39.00;;;;;12.46;86.32;99881.19;6281326;20;2841975;-45
2024/02/29 09:55:23;;;;;;;;;46.33;38.67;;;;;13.10;83.18;99889.44;6310453;20;3592958;-47
2024/02/29 09:57:54;;;;;;;;;50.00;40.00;;;;;13.95;81.42;99886.22;6277382;20;2860826;-45
2024/02/29 10:00:23;;;;;;;;;48.00;39.00;;;;;12.79;82.53;99877.19;6314796;20;3589939;-44
2024/02/29 10:02:53;;;;;;;;;54.00;44.67;;;;;12.76;86.07;99874.72;6274304;20;3604421;-45
2024/02/29 10:05:23;;;;;;;;;51.00;41.33;;;;;13.23;84.60;99877.81;6311774;20;3610832;-45
2024/02/29 10:07:52;;;;;;;;;48.67;39.33;;;;;12.96;84.34;99871.53;6282624;20;3608575;-44
2024/02/29 10:10:22;;;;;;;;;50.33;42.33;;;;;13.02;85.55;99864.00;6278619;20;2857749;-45
2024/02/29 10:12:57;;;;;;;;;46.00;37.67;;;;;13.17;84.30;99865.63;6312205;20;3554430;-49
2024/02/29 10:15:28;;;;;;;;;51.00;41.33;;;;;13.65;81.43;99865.88;6312471;20;3601379;-46
2024/02/29 10:17:56;;;;;;;;;76.00;65.00;;;;;13.03;84.10;99857.63;6275466;20;1926415;-46
2024/02/29 10:20:27;;;;;;;;;46.33;36.00;;;;;12.98;83.80;99854.38;6283213;20;3603424;-45
2024/02/29 10:22:56;;;;;;;;;50.67;40.00;;;;;13.60;80.77;99862.63;6277854;20;3623230;-46
2024/02/29 10:25:26;;;;;;;;;51.00;40.00;;;;;13.08;83.51;99859.03;6312065;20;3580567;-47
2024/02/29 10:28:02;;;;;;;;;48.00;39.50;;;;;13.10;83.02;99851.69;6277559;20;2851345;-44
2024/02/29 10:30:32;;;;;;;;;50.00;39.33;;;;;13.36;82.26;99855.31;6280010;20;2853461;-46
2024/02/29 10:33:02;;;;;;;;;48.33;40.00;;;;;13.76;78.71;99855.16;6309411;20;3595033;-48
2024/02/29 10:35:31;;;;;;;;;51.67;41.00;;;;;14.70;76.79;99857.25;6309130;20;3601312;-47
2024/02/29 10:38:00;;;;;;;;;49.00;41.00;;;;;14.20;79.02;99861.84;6279435;20;2854552;-47
2024/02/29 10:40:29;;;;;;;;;49.33;40.00;;;;;13.89;77.82;99856.97;6316095;20;3588864;-49
2024/02/29 10:43:00;;;;;;;;;46.67;39.00;;;;;14.08;78.48;99848.41;6281097;20;3593021;-45
2024/02/29 10:45:33;;;;;;;;;45.67;38.67;;;;;14.99;76.07;99846.03;6314613;20;3583607;-48
2024/02/29 10:48:16;;;;;;;;;49.67;40.67;;;;;15.26;75.35;99847.56;6280566;20;2854481;-49
2024/02/29 10:51:00;;;;;;;;;50.33;42.00;;;;;15.15;75.02;99843.00;6317106;20;3603384;-45
2024/02/29 10:54:24;;;;;;;;;52.50;40.50;;;;;14.26;78.14;99834.38;6280748;20;2843036;-47
2024/02/29 10:56:54;;;;;;;;;46.33;37.67;;;;;14.48;77.33;99838.19;6283134;20;3606522;-47
2024/02/29 10:59:25;;;;;;;;;41.67;32.33;;;;;14.73;77.34;99836.38;6282957;20;3634732;-46
2024/02/29 11:01:58;;;;;;;;;49.67;40.67;;;;;15.02;75.97;99832.28;6313233;20;2846209;-44
2024/02/29 11:04:28;;;;;;;;;41.00;35.00;;;;;14.48;78.01;99838.19;6315725;20;3601315;-45
2024/02/29 11:06:58;;;;;;;;;47.00;39.00;;;;;14.82;74.17;99835.66;6281018;20;2732630;-47
2024/02/29 11:09:28;;;;;;;;;43.67;35.67;;;;;14.31;77.52;99830.50;6314640;20;3622203;-47
2024/02/29 11:12:15;;;;;;;;;47.33;38.00;;;;;14.04;78.66;99828.88;6282159;20;3599240;-46
2024/02/29 11:14:48;;;;;;;;;43.67;38.00;;;;;14.06;78.40;99832.31;6313341;20;3587759;-46
2024/02/29 11:17:18;;;;;;;;;44.67;37.67;;;;;14.14;78.40;99827.22;6283083;20;3603525;-45